createdAt,value
2023-03-14T00:01:18.039Z,19.70
2023-03-14T00:03:45.057Z,19.70
2023-03-14T00:06:12.584Z,19.70
2023-03-14T00:08:39.375Z,19.70
2023-03-14T00:11:14.512Z,19.70
2023-03-14T00:13:41.499Z,19.70
2023-03-14T00:16:11.388Z,19.70
2023-03-14T00:18:38.122Z,19.70
2023-03-14T00:21:06.964Z,19.70
2023-03-14T00:23:35.227Z,19.70
2023-03-14T00:26:07.892Z,19.70
2023-03-14T00:28:35.120Z,19.70
2023-03-14T00:31:07.011Z,19.70
2023-03-14T00:33:34.504Z,19.70
2023-03-14T00:36:06.686Z,19.70
2023-03-14T00:38:34.243Z,19.70
2023-03-14T00:41:04.998Z,19.70
2023-03-14T00:43:31.678Z,19.70
2023-03-14T00:45:58.340Z,19.70
2023-03-14T00:48:27.525Z,19.70
2023-03-14T00:50:54.169Z,19.70
2023-03-14T00:53:20.875Z,19.70
2023-03-14T00:55:48.060Z,19.70
2023-03-14T00:58:16.383Z,19.70
2023-03-14T01:00:44.118Z,19.70
2023-03-14T01:03:13.473Z,19.70
2023-03-14T01:05:40.935Z,19.70
2023-03-14T01:08:09.777Z,19.70
2023-03-14T01:10:39.762Z,19.70
2023-03-14T01:13:06.506Z,19.70
2023-03-14T01:15:34.596Z,19.70
2023-03-14T01:18:02.476Z,19.70
2023-03-14T01:20:29.188Z,19.70
2023-03-14T01:22:55.914Z,19.70
2023-03-14T01:25:23.223Z,19.70
2023-03-14T01:27:50.300Z,19.70
2023-03-14T01:30:17.057Z,19.70
2023-03-14T01:32:44.748Z,19.70
2023-03-14T01:35:11.545Z,19.70
2023-03-14T01:37:39.048Z,19.70
2023-03-14T01:40:11.084Z,19.70
2023-03-14T01:42:37.713Z,19.70
2023-03-14T01:45:04.645Z,19.70
2023-03-14T01:47:31.651Z,19.70
2023-03-14T01:50:11.295Z,19.70
2023-03-14T01:52:49.485Z,19.70
2023-03-14T01:55:21.068Z,19.70
2023-03-14T01:57:54.042Z,19.70
2023-03-14T02:00:24.054Z,19.70
2023-03-14T02:02:52.584Z,19.70
2023-03-14T02:05:25.481Z,19.70
2023-03-14T02:08:07.498Z,19.70
2023-03-14T02:10:46.534Z,19.70
2023-03-14T02:13:16.623Z,19.70
2023-03-14T02:16:03.811Z,19.70
2023-03-14T02:18:43.662Z,19.70
2023-03-14T02:21:35.819Z,19.70
2023-03-14T02:24:10.852Z,19.60
2023-03-14T02:27:11.962Z,19.60
2023-03-14T02:29:58.995Z,19.70
2023-03-14T02:32:28.095Z,19.70
2023-03-14T02:34:58.512Z,19.70
2023-03-14T02:37:37.719Z,19.70
2023-03-14T02:40:06.050Z,19.70
2023-03-14T02:42:34.243Z,19.70
2023-03-14T02:45:08.799Z,19.60
2023-03-14T02:47:43.853Z,19.70
2023-03-14T02:50:15.516Z,19.70
2023-03-14T02:52:42.281Z,19.70
2023-03-14T02:55:09.617Z,19.70
2023-03-14T02:57:39.052Z,19.70
2023-03-14T03:00:06.371Z,19.70
2023-03-14T03:02:36.221Z,19.70
2023-03-14T03:05:02.989Z,19.70
2023-03-14T03:07:29.879Z,19.70
2023-03-14T03:09:57.606Z,19.70
2023-03-14T03:12:24.547Z,19.70
2023-03-14T03:14:51.219Z,19.70
2023-03-14T03:17:18.194Z,19.70
2023-03-14T03:19:44.919Z,19.70
2023-03-14T03:22:11.982Z,19.70
2023-03-14T03:24:41.245Z,19.70
2023-03-14T03:27:07.916Z,19.60
2023-03-14T03:29:35.027Z,19.60
2023-03-14T03:32:01.822Z,19.60
2023-03-14T03:34:28.963Z,19.60
2023-03-14T03:37:00.049Z,19.60
2023-03-14T03:39:29.458Z,19.60
2023-03-14T03:41:57.034Z,19.70
2023-03-14T03:44:23.867Z,19.70
2023-03-14T03:46:52.030Z,19.70
2023-03-14T03:49:18.851Z,19.70
2023-03-14T03:51:45.600Z,19.60
2023-03-14T03:54:12.438Z,19.60
2023-03-14T03:56:39.307Z,19.60
2023-03-14T03:59:06.854Z,19.70
2023-03-14T04:01:33.497Z,19.60
2023-03-14T04:04:00.578Z,19.60
2023-03-14T04:06:27.956Z,19.70
2023-03-14T04:08:58.066Z,19.70
2023-03-14T04:11:34.261Z,19.60
2023-03-14T04:14:11.661Z,19.70
2023-03-14T04:16:39.166Z,19.60
2023-03-14T04:19:11.631Z,19.60
2023-03-14T04:21:41.500Z,19.60
2023-03-14T04:24:10.518Z,19.70
2023-03-14T04:26:37.294Z,19.60
2023-03-14T04:29:04.315Z,19.70
2023-03-14T04:31:31.573Z,19.60
2023-03-14T04:33:58.264Z,19.60
2023-03-14T04:36:40.132Z,19.60
2023-03-14T04:39:10.368Z,19.60
2023-03-14T04:41:41.298Z,19.60
2023-03-14T04:44:10.673Z,19.60
2023-03-14T04:46:37.478Z,19.60
2023-03-14T04:49:06.711Z,19.60
2023-03-14T04:51:34.057Z,19.60
2023-03-14T04:54:01.006Z,19.60
2023-03-14T04:56:28.623Z,19.60
2023-03-14T04:58:55.871Z,19.70
2023-03-14T05:01:22.787Z,19.70
2023-03-14T05:04:02.413Z,19.70
2023-03-14T05:06:40.690Z,19.70
2023-03-14T05:09:13.280Z,19.70
2023-03-14T05:11:58.660Z,19.60
2023-03-14T05:14:32.062Z,19.60
2023-03-14T05:17:17.578Z,19.60
2023-03-14T05:19:55.870Z,19.70
2023-03-14T05:22:31.789Z,19.70
2023-03-14T05:25:09.366Z,19.60
2023-03-14T05:27:47.794Z,19.70
2023-03-14T05:30:34.677Z,19.70
2023-03-14T05:33:20.151Z,19.70
2023-03-14T05:35:59.732Z,19.70
2023-03-14T05:38:45.107Z,19.70
2023-03-14T05:41:30.430Z,19.70
2023-03-14T05:43:57.099Z,19.70
2023-03-14T05:46:55.787Z,19.70
2023-03-14T05:49:35.694Z,19.70
2023-03-14T05:52:21.068Z,19.70
2023-03-14T05:55:06.819Z,19.60
2023-03-14T05:58:08.692Z,19.60
2023-03-14T06:00:50.789Z,19.70
2023-03-14T06:03:34.152Z,19.70
2023-03-14T06:06:00.893Z,19.70
2023-03-14T06:08:28.120Z,19.70
2023-03-14T06:10:55.118Z,19.60
2023-03-14T06:13:27.954Z,19.60
2023-03-14T06:15:54.683Z,19.60
2023-03-14T06:18:21.470Z,19.70
2023-03-14T06:20:48.721Z,19.60
2023-03-14T06:23:23.505Z,19.60
2023-03-14T06:25:50.575Z,19.70
2023-03-14T06:28:18.079Z,19.70
2023-03-14T06:30:45.211Z,19.70
2023-03-14T06:33:13.641Z,19.70
2023-03-14T06:35:42.109Z,19.70
2023-03-14T06:38:08.850Z,19.70
2023-03-14T06:40:35.689Z,19.70
2023-03-14T06:43:07.538Z,19.60
2023-03-14T06:45:36.271Z,19.60
2023-03-14T06:48:04.281Z,19.60
2023-03-14T06:50:39.204Z,19.70
2023-03-14T06:53:05.982Z,19.70
2023-03-14T06:55:34.984Z,19.70
2023-03-14T06:58:01.711Z,19.70
2023-03-14T07:00:29.891Z,19.70
2023-03-14T07:02:57.620Z,19.70
2023-03-14T07:05:34.419Z,19.70
2023-03-14T07:08:01.218Z,19.70
2023-03-14T07:10:27.917Z,19.70
2023-03-14T07:12:54.940Z,19.70
2023-03-14T07:15:24.463Z,19.70
2023-03-14T07:17:56.470Z,19.70
2023-03-14T07:20:24.437Z,19.70
2023-03-14T07:22:51.675Z,19.70
2023-03-14T07:25:23.860Z,19.70
2023-03-14T07:27:50.578Z,19.70
2023-03-14T07:30:17.839Z,19.70
2023-03-14T07:32:45.751Z,19.70
2023-03-14T07:35:13.948Z,19.70
2023-03-14T07:37:42.026Z,19.70
2023-03-14T07:40:11.530Z,19.70
2023-03-14T07:42:38.363Z,19.70
2023-03-14T07:45:28.336Z,19.70
2023-03-14T07:47:58.341Z,19.70
2023-03-14T07:50:28.049Z,19.70
2023-03-14T07:52:56.542Z,19.70
2023-03-14T07:55:23.188Z,19.70
2023-03-14T07:57:49.823Z,19.70
2023-03-14T08:00:16.828Z,19.70
2023-03-14T08:02:46.583Z,19.80
2023-03-14T08:05:13.344Z,19.80
2023-03-14T08:07:40.020Z,19.80
2023-03-14T08:10:07.600Z,19.90
2023-03-14T08:12:34.265Z,19.90
2023-03-14T08:15:00.882Z,19.90
2023-03-14T08:17:28.854Z,19.90
2023-03-14T08:19:55.762Z,19.80
2023-03-14T08:22:22.627Z,19.90
2023-03-14T08:24:49.309Z,19.80
2023-03-14T08:27:16.088Z,19.90
2023-03-14T08:29:42.947Z,19.80
2023-03-14T08:32:09.962Z,19.80
2023-03-14T08:34:36.805Z,19.80
2023-03-14T08:37:08.644Z,19.80
2023-03-14T08:39:38.032Z,19.90
2023-03-14T08:42:04.718Z,19.90
2023-03-14T08:44:31.523Z,19.90
2023-03-14T08:46:58.394Z,19.80
2023-03-14T08:49:25.383Z,19.80
2023-03-14T08:51:52.065Z,19.80
2023-03-14T08:54:19.709Z,19.80
2023-03-14T08:56:48.997Z,19.90
2023-03-14T08:59:15.780Z,19.80
2023-03-14T09:01:42.420Z,19.90
2023-03-14T09:04:09.124Z,19.90
2023-03-14T09:06:36.438Z,19.80
2023-03-14T09:09:03.794Z,19.80
2023-03-14T09:11:30.507Z,19.80
2023-03-14T09:13:57.145Z,19.90
2023-03-14T09:16:23.933Z,19.80
2023-03-14T09:18:50.622Z,19.80
2023-03-14T09:21:17.252Z,19.80
2023-03-14T09:23:45.764Z,19.90
2023-03-14T09:26:13.371Z,19.90
2023-03-14T09:28:39.996Z,20.00
2023-03-14T09:31:08.997Z,20.00
2023-03-14T09:33:36.303Z,20.10
2023-03-14T09:36:04.054Z,20.10
2023-03-14T09:38:30.752Z,20.20
2023-03-14T09:40:59.880Z,20.20
2023-03-14T09:43:30.452Z,20.20
2023-03-14T09:45:59.382Z,20.20
2023-03-14T09:48:30.272Z,20.20
2023-03-14T09:51:00.329Z,20.20
2023-03-14T09:53:44.875Z,20.30
2023-03-14T09:56:19.845Z,20.30
2023-03-14T09:58:55.523Z,20.30
2023-03-14T10:01:27.446Z,20.30
2023-03-14T10:04:01.556Z,20.30
2023-03-14T10:06:31.537Z,20.30
2023-03-14T10:08:58.353Z,20.30
2023-03-14T10:11:25.710Z,20.30
2023-03-14T10:14:06.921Z,20.40
2023-03-14T10:16:36.972Z,20.40
2023-03-14T10:19:10.910Z,20.40
2023-03-14T10:21:55.064Z,20.40
2023-03-14T10:24:36.045Z,20.40
2023-03-14T10:27:18.163Z,20.40
2023-03-14T10:30:00.183Z,20.40
2023-03-14T10:32:37.723Z,20.40
2023-03-14T10:35:09.658Z,20.50
2023-03-14T10:37:36.623Z,20.50
2023-03-14T10:40:06.727Z,20.50
2023-03-14T10:42:39.982Z,20.60
2023-03-14T10:45:26.935Z,20.60
2023-03-14T10:47:53.631Z,20.60
2023-03-14T10:50:29.055Z,20.60
2023-03-14T10:53:02.558Z,20.60
2023-03-14T10:55:41.701Z,20.60
2023-03-14T10:58:25.192Z,20.60
2023-03-14T11:01:24.796Z,20.50
2023-03-14T11:04:16.028Z,20.50
2023-03-14T11:06:51.356Z,20.50
2023-03-14T11:09:56.704Z,20.40
2023-03-14T11:12:53.818Z,20.40
2023-03-14T11:15:20.406Z,20.40
2023-03-14T11:18:11.009Z,20.40
2023-03-14T11:21:13.764Z,20.40
2023-03-14T11:24:07.644Z,20.40
2023-03-14T11:26:44.664Z,20.40
2023-03-14T11:29:39.070Z,20.40
2023-03-14T11:32:20.301Z,20.40
2023-03-14T11:34:54.990Z,20.40
2023-03-14T11:37:32.899Z,20.40
2023-03-14T11:40:23.020Z,20.30
2023-03-14T11:43:16.695Z,20.30
2023-03-14T11:45:44.688Z,20.30
2023-03-14T11:48:32.174Z,20.30
2023-03-14T11:51:01.940Z,20.30
2023-03-14T11:53:44.402Z,20.30
2023-03-14T11:56:33.777Z,20.30
2023-03-14T11:59:07.182Z,20.30
2023-03-14T12:01:52.004Z,20.30
2023-03-14T12:04:33.430Z,20.20
2023-03-14T12:07:07.961Z,20.20
2023-03-14T12:09:35.769Z,20.20
2023-03-14T12:12:06.735Z,20.20
2023-03-14T12:14:36.271Z,20.20
2023-03-14T12:17:18.470Z,20.20
2023-03-14T12:19:45.443Z,20.20
2023-03-14T12:22:18.222Z,20.20
2023-03-14T12:24:54.500Z,20.20
2023-03-14T12:27:46.213Z,20.20
2023-03-14T12:30:30.528Z,20.20
2023-03-14T12:33:15.288Z,20.20
2023-03-14T12:35:49.673Z,20.20
2023-03-14T12:38:53.520Z,20.20
2023-03-14T12:41:28.851Z,20.20
2023-03-14T12:43:55.535Z,20.20
2023-03-14T12:46:27.863Z,20.20
2023-03-14T12:49:03.710Z,20.20
2023-03-14T12:51:42.416Z,20.10
2023-03-14T12:54:27.324Z,20.10
2023-03-14T12:57:15.152Z,20.20
2023-03-14T13:00:02.707Z,20.20
2023-03-14T13:02:30.472Z,20.20
2023-03-14T13:05:16.971Z,20.20
2023-03-14T13:07:44.218Z,20.20
2023-03-14T13:13:11.886Z,20.30
2023-03-14T13:15:44.205Z,20.30
2023-03-14T13:18:17.875Z,20.30
2023-03-14T13:20:55.386Z,20.30
2023-03-14T13:23:28.291Z,20.30
2023-03-14T13:25:55.697Z,20.30
2023-03-14T13:28:22.908Z,20.30
2023-03-14T13:30:52.163Z,20.40
2023-03-14T13:33:22.419Z,20.40
2023-03-14T13:35:55.827Z,20.40
2023-03-14T13:38:25.747Z,20.30
2023-03-14T13:41:00.037Z,20.30
2023-03-14T13:43:32.829Z,20.30
2023-03-14T13:46:28.807Z,20.30
2023-03-14T13:49:12.493Z,20.20
2023-03-14T13:51:40.761Z,20.20
2023-03-14T13:54:21.261Z,20.20
2023-03-14T13:56:48.734Z,20.20
2023-03-14T13:59:23.377Z,20.20
2023-03-14T14:01:51.272Z,20.20
2023-03-14T14:04:24.086Z,20.20
2023-03-14T14:06:52.730Z,20.20
2023-03-14T14:09:24.937Z,20.20
2023-03-14T14:12:21.494Z,20.10
2023-03-14T14:15:15.177Z,20.10
2023-03-14T14:17:53.900Z,20.10
2023-03-14T14:20:35.955Z,20.10
2023-03-14T14:23:05.918Z,20.00
2023-03-14T14:25:33.219Z,20.00
2023-03-14T14:28:00.451Z,20.00
2023-03-14T14:30:34.801Z,20.00
2023-03-14T14:33:19.262Z,20.10
2023-03-14T14:35:53.458Z,20.00
2023-03-14T14:38:21.231Z,20.00
2023-03-14T14:40:51.487Z,20.00
2023-03-14T14:43:24.583Z,20.00
2023-03-14T14:45:54.479Z,20.00
2023-03-14T14:48:24.202Z,19.90
2023-03-14T14:51:02.902Z,19.90
2023-03-14T14:53:37.597Z,19.90
2023-03-14T14:56:39.907Z,19.90
2023-03-14T14:59:19.447Z,19.80
2023-03-14T15:01:48.423Z,19.90
2023-03-14T15:04:16.125Z,19.80
2023-03-14T15:06:46.538Z,19.90
2023-03-14T15:09:13.615Z,19.80
2023-03-14T15:11:40.292Z,19.90
2023-03-14T15:14:07.897Z,19.80
2023-03-14T15:16:34.826Z,19.90
2023-03-14T15:19:18.025Z,19.90
2023-03-14T15:21:50.115Z,19.90
2023-03-14T15:24:16.962Z,19.80
2023-03-14T15:26:45.249Z,19.80
2023-03-14T15:29:13.421Z,19.90
2023-03-14T15:31:41.452Z,19.90
2023-03-14T15:34:09.017Z,19.90
2023-03-14T15:36:38.898Z,19.80
2023-03-14T15:39:07.271Z,19.90
2023-03-14T15:41:34.284Z,19.90
2023-03-14T15:44:01.104Z,19.90
2023-03-14T15:46:29.900Z,19.90
2023-03-14T15:48:57.602Z,19.90
2023-03-14T15:51:24.267Z,19.80
2023-03-14T15:53:52.514Z,19.90
2023-03-14T15:56:20.533Z,19.90
2023-03-14T15:58:47.478Z,19.90
2023-03-14T16:01:16.737Z,19.90
2023-03-14T16:03:45.339Z,19.90
2023-03-14T16:06:13.166Z,19.90
2023-03-14T16:08:39.838Z,19.90
2023-03-14T16:11:06.520Z,19.90
2023-03-14T16:13:33.293Z,19.90
2023-03-14T16:16:02.659Z,19.90
2023-03-14T16:18:32.139Z,19.90
2023-03-14T16:21:01.706Z,19.90
2023-03-14T16:23:29.477Z,19.90
2023-03-14T16:25:57.055Z,19.90
2023-03-14T16:28:24.419Z,19.90
2023-03-14T16:30:51.072Z,19.90
2023-03-14T16:33:18.271Z,19.90
2023-03-14T16:35:55.423Z,19.90
2023-03-14T16:38:23.523Z,19.90
2023-03-14T16:41:05.935Z,19.90
2023-03-14T16:43:33.994Z,19.90
2023-03-14T16:46:01.498Z,19.90
2023-03-14T16:48:28.535Z,19.90
2023-03-14T16:50:55.577Z,19.90
2023-03-14T16:53:23.045Z,19.90
2023-03-14T16:55:50.748Z,19.90
2023-03-14T16:58:21.304Z,19.90
2023-03-14T17:00:49.184Z,20.00
2023-03-14T17:03:17.385Z,19.90
2023-03-14T17:05:49.398Z,19.90
2023-03-14T17:08:17.734Z,19.90
2023-03-14T17:10:44.835Z,19.90
2023-03-14T17:13:12.241Z,19.90
2023-03-14T17:15:38.951Z,20.00
2023-03-14T17:18:06.523Z,19.90
2023-03-14T17:20:33.215Z,19.90
2023-03-14T17:22:59.861Z,19.90
2023-03-14T17:25:26.531Z,19.90
2023-03-14T17:27:53.192Z,19.90
2023-03-14T17:30:20.022Z,19.90
2023-03-14T17:32:46.737Z,19.90
2023-03-14T17:35:13.438Z,19.90
2023-03-14T17:37:41.052Z,19.90
2023-03-14T17:40:08.361Z,19.90
2023-03-14T17:42:35.003Z,19.90
2023-03-14T17:45:01.709Z,19.90
2023-03-14T17:47:28.343Z,19.90
2023-03-14T17:49:55.270Z,19.90
2023-03-14T17:52:21.971Z,19.90
2023-03-14T17:54:48.634Z,19.90
2023-03-14T17:57:15.332Z,19.90
2023-03-14T17:59:42.784Z,19.90
2023-03-14T18:02:11.073Z,19.90
2023-03-14T18:04:38.040Z,19.90
2023-03-14T18:07:04.743Z,19.90
2023-03-14T18:09:31.510Z,19.90
2023-03-14T18:12:07.779Z,19.90
2023-03-14T18:14:38.866Z,19.90
2023-03-14T18:17:06.026Z,19.90
2023-03-14T18:19:32.877Z,19.90
2023-03-14T18:21:59.503Z,19.90
2023-03-14T18:24:28.713Z,19.90
2023-03-14T18:26:55.748Z,19.90
2023-03-14T18:29:22.506Z,19.80
2023-03-14T18:31:49.280Z,19.90
2023-03-14T18:34:16.671Z,19.90
2023-03-14T18:36:43.492Z,19.90
2023-03-14T18:39:10.331Z,19.90
2023-03-14T18:41:37.417Z,19.90
2023-03-14T18:44:04.618Z,19.90
2023-03-14T18:46:31.878Z,19.90
2023-03-14T18:49:03.838Z,19.90
2023-03-14T18:51:33.070Z,19.90
2023-03-14T18:54:09.430Z,19.90
2023-03-14T18:56:39.257Z,19.80
2023-03-14T18:59:06.621Z,19.80
2023-03-14T19:01:34.206Z,19.80
2023-03-14T19:04:01.687Z,19.90
2023-03-14T19:06:31.906Z,19.90
2023-03-14T19:08:58.947Z,19.80
2023-03-14T19:11:26.698Z,19.80
2023-03-14T19:13:54.790Z,19.80
2023-03-14T19:16:27.747Z,19.80
2023-03-14T19:18:55.419Z,19.80
2023-03-14T19:21:31.514Z,19.80
2023-03-14T19:23:58.354Z,19.80
2023-03-14T19:26:25.097Z,19.80
2023-03-14T19:28:54.929Z,19.80
2023-03-14T19:31:21.852Z,19.80
2023-03-14T19:33:48.836Z,19.80
2023-03-14T19:36:27.350Z,19.80
2023-03-14T19:38:54.281Z,19.80
2023-03-14T19:41:23.170Z,19.80
2023-03-14T19:43:50.327Z,19.80
2023-03-14T19:46:17.331Z,19.80
2023-03-14T19:48:45.505Z,19.80
2023-03-14T19:51:13.526Z,19.80
2023-03-14T19:53:41.779Z,19.80
2023-03-14T19:56:09.599Z,19.80
2023-03-14T19:58:38.173Z,19.80
2023-03-14T20:01:05.944Z,19.80
2023-03-14T20:03:33.568Z,19.80
2023-03-14T20:06:05.068Z,19.80
2023-03-14T20:08:31.704Z,19.80
2023-03-14T20:10:58.407Z,19.80
2023-03-14T20:13:25.268Z,19.80
2023-03-14T20:15:53.009Z,19.80
2023-03-14T20:18:19.820Z,19.80
2023-03-14T20:20:46.503Z,19.80
2023-03-14T20:23:14.407Z,19.80
2023-03-14T20:25:41.487Z,19.80
2023-03-14T20:28:08.512Z,19.80
2023-03-14T20:30:35.264Z,19.80
2023-03-14T20:33:04.991Z,19.80
2023-03-14T20:35:31.797Z,19.80
2023-03-14T20:37:58.488Z,19.80
2023-03-14T20:40:28.545Z,19.80
2023-03-14T20:42:55.958Z,19.80
2023-03-14T20:45:22.984Z,19.80
2023-03-14T20:47:49.988Z,19.80
2023-03-14T20:50:16.835Z,19.80
2023-03-14T20:52:43.685Z,19.80
2023-03-14T20:55:10.830Z,19.80
2023-03-14T20:57:37.465Z,19.80
2023-03-14T21:00:07.443Z,19.70
2023-03-14T21:02:34.951Z,19.70
2023-03-14T21:05:01.938Z,19.80
2023-03-14T21:07:34.370Z,19.70
2023-03-14T21:10:01.081Z,19.80
2023-03-14T21:12:27.741Z,19.80
2023-03-14T21:14:54.400Z,19.80
2023-03-14T21:17:21.082Z,19.70
2023-03-14T21:19:47.762Z,19.80
2023-03-14T21:22:18.331Z,19.80
2023-03-14T21:24:46.010Z,19.70
2023-03-14T21:27:12.714Z,19.70
2023-03-14T21:29:39.461Z,19.70
2023-03-14T21:32:06.254Z,19.80
2023-03-14T21:34:33.718Z,19.70
2023-03-14T21:37:00.537Z,19.70
2023-03-14T21:39:27.277Z,19.70
2023-03-14T21:41:53.942Z,19.70
2023-03-14T21:44:21.731Z,19.70
2023-03-14T21:46:49.490Z,19.70
2023-03-14T21:49:17.134Z,19.70
2023-03-14T21:51:45.966Z,19.70
2023-03-14T21:54:14.466Z,19.70
2023-03-14T21:56:42.220Z,19.70
2023-03-14T21:59:09.473Z,19.70
2023-03-14T22:01:36.448Z,19.70
2023-03-14T22:04:03.211Z,19.70
2023-03-14T22:06:29.887Z,19.70
2023-03-14T22:08:56.608Z,19.70
2023-03-14T22:11:24.395Z,19.70
2023-03-14T22:13:51.181Z,19.70
2023-03-14T22:16:17.864Z,19.70
2023-03-14T22:18:45.427Z,19.70
2023-03-14T22:21:12.170Z,19.70
2023-03-14T22:23:39.111Z,19.70
2023-03-14T22:26:05.762Z,19.70
2023-03-14T22:28:32.459Z,19.70
2023-03-14T22:31:00.420Z,19.70
2023-03-14T22:33:28.914Z,19.70
2023-03-14T22:35:55.612Z,19.70
2023-03-14T22:38:22.513Z,19.70
2023-03-14T22:40:49.167Z,19.70
2023-03-14T22:43:15.909Z,19.70
2023-03-14T22:45:42.950Z,19.70
2023-03-14T22:48:09.996Z,19.70
2023-03-14T22:50:40.292Z,19.70
2023-03-14T22:53:07.367Z,19.70
2023-03-14T22:55:34.111Z,19.70
2023-03-14T22:58:01.030Z,19.70
2023-03-14T23:00:29.311Z,19.70
2023-03-14T23:02:56.051Z,19.70
2023-03-14T23:05:22.778Z,19.70
2023-03-14T23:07:49.471Z,19.70
2023-03-14T23:10:16.644Z,19.70
2023-03-14T23:12:45.222Z,19.70
2023-03-14T23:15:15.503Z,19.60
2023-03-14T23:17:43.752Z,19.60
2023-03-14T23:20:12.199Z,19.70
2023-03-14T23:22:38.842Z,19.70
2023-03-14T23:25:06.100Z,19.70
2023-03-14T23:27:33.084Z,19.70
2023-03-14T23:29:59.841Z,19.60
2023-03-14T23:32:26.644Z,19.70
2023-03-14T23:34:53.388Z,19.60
2023-03-14T23:37:20.020Z,19.70
2023-03-14T23:39:46.695Z,19.70
2023-03-14T23:42:13.578Z,19.70
2023-03-14T23:44:40.748Z,19.70
2023-03-14T23:47:08.061Z,19.60
2023-03-14T23:49:34.829Z,19.60
2023-03-14T23:52:01.964Z,19.60
2023-03-14T23:54:28.655Z,19.60
2023-03-14T23:56:55.309Z,19.70
2023-03-14T23:59:21.966Z,19.70
